Monroe, Indiana
Current Conditions -  °F | °C
As of 10:54 AM on Wednesday 22 Oct 2014 (Local Time) from KFWA Reporting Station
Scattered Clouds Scattered Clouds  
Wind Chill: 45°   Ceiling: Unl
Heat Index: 49°   Visibility: 10mi
Dew Point: 40°   Wind: 8mph
Humidity: 71%   Direction: 40°NE
Pressure: 30.35"   Gusts: NA
Location:  40.75°N, 84.94°W
Report Text: KFWA 221454Z 04007KT 10SM SCT024 09/04 A3035 RMK AO2 SLP280 T00940044 51011
Loading
Personal Weather Stations






























Interactive Weather Map
Tropical Storm Tracking
New forecast layout! Learn more

10-Day Weather Forecast

Advertisements
Track Severe Weather on mobile